Time;durP1;ratioP1;P1;durP2;ratioP2;P2;SDS_P1;SDS_P2;PMS_P1;PMS_P2;Temp;Humidity;BMP_temperature;BMP_pressure;BME280_temperature;BME280_humidity;BME280_pressure;Samples;Min_cycle;Max_cycle;Signal;HPM_P1;HPM_P2
2023/09/07 00:01:58;;;;;;;8.63;4.20;;;;;;;19.36;64.75;99871.00;4943303;29;20096;-96
2023/09/07 00:04:26;;;;;;;5.20;3.65;;;;;;;19.23;65.06;99862.91;4961140;29;20058;-96
2023/09/07 00:06:54;;;;;;;10.25;3.53;;;;;;;19.24;65.02;99878.19;4945487;29;20040;-96
2023/09/07 00:09:21;;;;;;;13.10;4.63;;;;;;;19.20;64.82;99867.06;4961270;29;20039;-96
2023/09/07 00:11:48;;;;;;;7.28;3.70;;;;;;;19.18;65.19;99880.25;4962324;28;20031;-96
2023/09/07 00:14:13;;;;;;;11.88;4.28;;;;;;;19.14;65.18;99879.25;4961018;29;20090;-96
2023/09/07 00:16:39;;;;;;;17.48;4.00;;;;;;;18.98;65.64;99873.38;4960469;28;20489;-96
2023/09/07 00:19:05;;;;;;;5.10;3.45;;;;;;;19.06;65.65;99890.94;4960777;29;20043;-96
2023/09/07 00:21:31;;;;;;;8.35;3.90;;;;;;;19.06;65.39;99901.84;4944923;29;20516;-96
2023/09/07 00:24:04;;;;;;;8.73;4.25;;;;;;;18.94;65.66;99891.50;4945787;29;20489;-96
2023/09/07 00:26:30;;;;;;;7.93;3.88;;;;;;;19.00;65.08;99901.16;4946556;29;20094;-96
2023/09/07 00:28:56;;;;;;;4.68;3.75;;;;;;;18.90;65.29;99879.59;4963455;28;20082;-96
2023/09/07 00:31:25;;;;;;;10.02;4.40;;;;;;;18.94;65.65;99889.56;4953143;28;20069;-96
2023/09/07 00:33:50;;;;;;;9.40;3.85;;;;;;;18.94;66.24;99896.94;4952487;28;20535;-96
2023/09/07 00:36:18;;;;;;;4.70;3.72;;;;;;;18.89;66.26;99892.44;4951258;28;20078;-96
2023/09/07 00:38:43;;;;;;;10.85;4.38;;;;;;;18.91;67.12;99906.56;4951835;28;20011;-96
2023/09/07 00:41:09;;;;;;;7.25;4.13;;;;;;;18.85;67.07;99894.16;4967028;28;20110;-96
2023/09/07 00:43:35;;;;;;;10.27;4.40;;;;;;;18.80;67.47;99898.94;4951958;28;20034;-96
2023/09/07 00:46:03;;;;;;;12.85;4.40;;;;;;;18.83;67.48;99901.84;4952421;28;20081;-96
2023/09/07 00:48:32;;;;;;;10.02;4.40;;;;;;;18.76;67.56;99907.72;4951121;28;20086;-96
2023/09/07 00:51:00;;;;;;;8.68;4.55;;;;;;;18.77;67.77;99901.13;4953021;28;20097;-96
2023/09/07 00:53:29;;;;;;;8.30;4.28;;;;;;;18.74;67.38;99898.25;4955124;28;20026;-96
2023/09/07 00:55:55;;;;;;;7.30;4.28;;;;;;;18.82;67.46;99913.06;4954708;28;20039;-96
2023/09/07 01:01:43;;;;;;;8.88;4.30;;;;;;;18.71;67.50;99896.13;4985630;28;20046;-96
2023/09/07 01:04:09;;;;;;;7.95;4.60;;;;;;;18.62;67.60;99890.59;4968818;28;20030;-96
2023/09/07 01:06:43;;;;;;;10.68;5.18;;;;;;;18.65;67.99;99909.06;4984322;28;20110;-96
2023/09/07 01:09:15;;;;;;;8.73;4.00;;;;;;;18.57;68.16;99896.16;4952215;28;20117;-96
2023/09/07 01:11:40;;;;;;;9.48;4.72;;;;;;;18.50;68.35;99887.63;4967925;28;20067;-96
2023/09/07 01:14:08;;;;;;;7.78;3.80;;;;;;;18.59;68.86;99910.31;4984179;28;20038;-96
2023/09/07 01:16:35;;;;;;;8.75;4.30;;;;;;;18.51;68.43;99892.78;4968874;28;20530;-96
2023/09/07 01:19:21;;;;;;;8.27;4.22;;;;;;;18.62;68.68;99906.97;4951548;28;20126;-96
2023/09/07 01:21:46;;;;;;;9.38;4.40;;;;;;;18.48;69.12;99904.28;4949943;28;20089;-96
2023/09/07 01:24:15;;;;;;;11.68;5.18;;;;;;;18.45;69.02;99901.34;4951007;28;20035;-96
2023/09/07 01:26:42;;;;;;;12.80;4.05;;;;;;;18.33;68.61;99886.34;4951921;28;20035;-96
2023/09/07 01:29:08;;;;;;;6.80;4.53;;;;;;;18.32;68.26;99865.69;4950946;28;20097;-96
2023/09/07 01:31:36;;;;;;;8.00;4.20;;;;;;;18.33;68.48;99875.44;4952839;28;20042;-96
2023/09/07 01:34:02;;;;;;;10.98;4.40;;;;;;;18.32;68.74;99879.31;4951189;28;20038;-96
2023/09/07 01:36:27;;;;;;;5.88;4.30;;;;;;;18.40;68.54;99890.59;4950458;28;20039;-96
2023/09/07 01:38:53;;;;;;;9.57;4.80;;;;;;;18.35;68.68;99881.41;4950937;28;20018;-96
2023/09/07 01:41:18;;;;;;;11.40;4.32;;;;;;;18.32;68.38;99876.59;4949094;28;20465;-96
2023/09/07 01:43:44;;;;;;;6.55;4.10;;;;;;;18.35;68.65;99883.34;4966343;28;20106;-96
2023/09/07 01:46:12;;;;;;;12.77;4.07;;;;;;;18.13;68.90;99879.44;4967180;28;20196;-96
2023/09/07 01:48:42;;;;;;;7.53;3.90;;;;;;;18.10;69.24;99888.25;4966572;28;20027;-96
2023/09/07 01:51:10;;;;;;;5.35;3.63;;;;;;;18.08;69.18;99887.75;4967933;28;20386;-96
2023/09/07 01:53:35;;;;;;;6.47;4.30;;;;;;;18.05;69.42;99887.53;4966188;28;20033;-96
2023/09/07 01:56:01;;;;;;;7.03;3.92;;;;;;;18.10;69.47;99896.41;4949747;28;20527;-96
2023/09/07 01:58:26;;;;;;;11.05;4.35;;;;;;;18.04;69.87;99900.34;4949984;28;20022;-96
2023/09/07 02:00:56;;;;;;;6.82;4.10;;;;;;;18.01;69.90;99892.78;4981581;28;20035;-96
2023/09/07 02:03:22;;;;;;;13.13;4.85;;;;;;;18.00;69.76;99891.19;4950169;28;20034;-96
2023/09/07 02:05:49;;;;;;;10.10;4.72;;;;;;;18.04;70.54;99896.84;4951232;28;20497;-96
2023/09/07 02:08:15;;;;;;;11.75;4.93;;;;;;;17.96;70.72;99888.25;4981829;28;20398;-96
2023/09/07 02:10:41;;;;;;;9.63;4.57;;;;;;;17.97;70.75;99903.50;4950777;28;20038;-96
2023/09/07 02:13:06;;;;;;;7.20;3.90;;;;;;;17.92;70.57;99887.25;4965416;28;20065;-96
2023/09/07 02:15:35;;;;;;;7.30;4.15;;;;;;;17.95;70.45;99894.81;4949888;28;20034;-96
2023/09/07 02:18:03;;;;;;;9.15;5.18;;;;;;;17.95;70.36;99881.19;4966259;28;20099;-96
2023/09/07 02:20:29;;;;;;;8.55;4.30;;;;;;;18.01;70.46;99892.78;4965756;28;20034;-96
2023/09/07 02:22:54;;;;;;;13.90;4.32;;;;;;;18.03;70.95;99892.47;4950769;28;20472;-96
2023/09/07 02:25:20;;;;;;;11.02;4.53;;;;;;;17.98;71.14;99909.75;4965954;28;20049;-96
2023/09/07 02:27:49;;;;;;;6.93;4.05;;;;;;;17.84;70.98;99904.31;4965106;28;20035;-96
2023/09/07 02:30:14;;;;;;;6.45;4.28;;;;;;;17.71;71.29;99895.00;4950629;28;20134;-96
2023/09/07 02:32:42;;;;;;;6.22;4.15;;;;;;;17.72;71.32;99896.63;4949698;28;20035;-96
2023/09/07 02:35:08;;;;;;;7.30;4.20;;;;;;;17.72;71.38;99903.97;4948585;28;20031;-96
2023/09/07 02:37:35;;;;;;;8.73;4.03;;;;;;;17.73;70.97;99897.44;4950937;28;20019;-96
2023/09/07 02:40:01;;;;;;;6.70;3.83;;;;;;;17.81;70.88;99898.66;4949361;28;20035;-96
2023/09/07 02:42:26;;;;;;;5.30;4.03;;;;;;;17.73;71.28;99891.97;4949629;28;20038;-95
2023/09/07 02:44:54;;;;;;;10.10;4.68;;;;;;;17.63;71.60;99892.97;4949871;28;20034;-96
2023/09/07 02:47:21;;;;;;;10.52;4.95;;;;;;;17.70;71.46;99896.13;4965410;28;20031;-96
2023/09/07 02:49:47;;;;;;;6.72;4.50;;;;;;;17.71;71.11;99894.19;4949647;28;20062;-96
2023/09/07 02:52:12;;;;;;;9.50;4.47;;;;;;;17.75;70.64;99881.59;4948916;28;20046;-96
2023/09/07 02:54:38;;;;;;;8.82;4.43;;;;;;;17.94;69.56;99897.84;4949064;28;20030;-96
2023/09/07 02:57:04;;;;;;;6.35;3.92;;;;;;;18.04;68.97;99897.63;4950393;28;20039;-96
2023/09/07 02:59:29;;;;;;;5.30;4.10;;;;;;;18.15;68.92;99912.63;4949212;28;20070;-96
2023/09/07 03:01:55;;;;;;;8.52;4.30;;;;;;;18.04;69.00;99897.63;4966241;28;20125;-95
2023/09/07 03:04:20;;;;;;;5.28;3.90;;;;;;;18.01;69.60;99905.59;4964671;28;20035;-96
2023/09/07 03:06:46;;;;;;;10.75;3.88;;;;;;;18.01;69.76;99906.41;4948719;28;20081;-96
2023/09/07 03:09:12;;;;;;;8.90;4.50;;;;;;;18.07;69.64;99921.53;4949600;28;20038;-96
2023/09/07 03:15:03;;;;;;;9.95;4.25;;;;;;;17.71;70.67;99891.47;4983205;28;20041;-96
2023/09/07 03:17:29;;;;;;;6.68;4.35;;;;;;;17.75;70.73;99903.38;4947709;28;20027;-96
2023/09/07 03:19:55;;;;;;;7.38;4.70;;;;;;;17.80;70.45;99905.19;4961676;28;20057;-95
2023/09/07 03:22:21;;;;;;;10.68;4.60;;;;;;;17.77;70.79;99909.34;4962212;28;20586;-96
2023/09/07 03:24:47;;;;;;;7.47;4.38;;;;;;;17.72;71.05;99923.03;4946187;28;20511;-96
2023/09/07 03:27:12;;;;;;;9.20;4.32;;;;;;;17.58;71.28;99904.00;4946982;28;20011;-96
2023/09/07 03:29:41;;;;;;;13.20;4.43;;;;;;;17.56;71.54;99920.63;4942501;29;20040;-96
2023/09/07 03:32:06;;;;;;;8.30;4.28;;;;;;;17.46;72.33;99928.97;4943946;29;20031;-96
2023/09/07 03:34:32;;;;;;;7.03;4.13;;;;;;;17.40;72.00;99932.91;4943502;29;20117;-96
2023/09/07 03:36:57;;;;;;;8.07;4.05;;;;;;;17.33;71.92;99929.78;4941919;29;20038;-96
2023/09/07 03:39:26;;;;;;;8.85;4.32;;;;;;;17.34;72.03;99928.66;4943445;29;20039;-96
2023/09/07 03:41:52;;;;;;;7.22;4.03;;;;;;;17.22;72.83;99939.22;4945821;29;20031;-96
2023/09/07 03:44:18;;;;;;;10.18;4.50;;;;;;;17.19;73.16;99927.03;4945263;29;20126;-96
2023/09/07 03:46:44;;;;;;;8.15;4.68;;;;;;;17.12;73.80;99930.13;4978611;28;20031;-95
2023/09/07 03:49:09;;;;;;;9.43;4.43;;;;;;;17.04;73.92;99921.84;4940761;29;20078;-94
2023/09/07 03:51:35;;;;;;;10.35;4.47;;;;;;;17.18;73.64;99941.72;4941628;29;20390;-96
2023/09/07 03:54:00;;;;;;;10.23;4.18;;;;;;;17.16;73.58;99935.75;4941442;29;20405;-96
2023/09/07 03:56:26;;;;;;;8.63;3.97;;;;;;;17.24;73.29;99947.88;4942489;29;20042;-96
2023/09/07 03:58:52;;;;;;;9.85;4.60;;;;;;;17.18;73.12;99941.72;4942195;29;20035;-96
2023/09/07 04:01:17;;;;;;;8.32;4.40;;;;;;;17.05;73.62;99943.31;4972454;28;20031;-96
2023/09/07 04:03:43;;;;;;;11.65;5.35;;;;;;;17.16;74.15;99961.09;4973931;28;20028;-96
2023/09/07 04:06:08;;;;;;;8.25;4.45;;;;;;;17.21;73.28;99951.22;4945243;29;20043;-95
2023/09/07 04:08:35;;;;;;;9.23;4.82;;;;;;;17.38;72.72;99967.78;4976538;28;20019;-95
2023/09/07 04:11:04;;;;;;;8.70;4.97;;;;;;;17.34;72.97;99966.75;4946538;29;20490;-96
2023/09/07 04:24:41;;;;;;;13.40;5.03;;;;;;;16.96;74.10;99945.09;5332330;23;20058;-96
2023/09/07 04:27:18;;;;;;;8.07;4.43;;;;;;;17.24;73.75;99969.66;4906235;29;20061;-96
2023/09/07 04:29:50;;;;;;;9.25;5.53;;;;;;;17.08;73.87;99960.94;4902136;29;20496;-96
2023/09/07 04:35:12;;;;;;;;;;;;;;;16.99;75.08;99981.78;4991770;28;20051;-96
2023/09/07 04:37:44;;;;;;;10.52;5.20;;;;;;;16.91;75.56;99975.09;5308872;23;19973;-96
2023/09/07 04:40:10;;;;;;;;;;;;;;;16.97;75.39;99984.78;4966943;28;20058;-96
2023/09/07 04:42:36;;;;;;;18.15;5.70;;;;;;;16.91;75.54;99964.19;4965566;28;19910;-95
2023/09/07 04:45:04;;;;;;;10.85;5.45;;;;;;;16.83;75.48;99968.41;4950464;28;20031;-96
2023/09/07 04:47:30;;;;;;;10.77;4.88;;;;;;;16.88;75.23;99973.75;4966906;28;20026;-94
2023/09/07 04:56:10;;;;;;;9.38;5.68;;;;;;;17.02;75.93;99989.34;5492676;23;20053;-96
2023/09/07 04:58:36;;;;;;;11.05;5.55;;;;;;;17.00;75.50;99983.41;4948020;28;20039;-93
2023/09/07 05:01:03;;;;;;;10.68;5.20;;;;;;;17.11;74.86;99976.69;4947231;28;20082;-94
2023/09/07 05:03:51;;;;;;;15.50;5.97;;;;;;;17.20;74.27;99976.81;4965483;28;20054;-96
2023/09/07 05:06:22;;;;;;;12.35;5.40;;;;;;;17.35;73.83;99990.19;4976196;28;20046;-96
2023/09/07 05:09:21;;;;;;;;;;;;;;;;;;;;;
2023/09/07 05:11:57;;;;;;;10.55;5.75;;;;;;;17.34;73.88;99983.09;4952606;28;19965;-96
2023/09/07 05:15:00;;;;;;;9.52;5.93;;;;;;;17.35;73.74;99982.00;4974791;28;20225;-96
2023/09/07 05:17:26;;;;;;;10.32;6.20;;;;;;;17.49;73.04;99995.63;4944521;28;20038;-96
2023/09/07 05:19:51;;;;;;;13.75;5.85;;;;;;;17.64;73.29;99998.09;4957176;28;20023;-96
2023/09/07 05:22:37;;;;;;;13.05;6.00;;;;;;;17.64;72.35;99986.38;4970649;28;20047;-96
2023/09/07 05:25:05;;;;;;;18.27;6.00;;;;;;;17.63;72.41;99973.88;4965116;28;20110;-96
2023/09/07 05:33:05;;;;;;;11.10;5.43;;;;;;;17.89;71.74;99982.44;4972023;28;20070;-96
2023/09/07 05:35:33;;;;;;;12.45;5.15;;;;;;;18.06;71.57;99981.81;4957125;29;20134;-96
2023/09/07 05:38:04;;;;;;;19.83;6.03;;;;;;;18.22;70.79;99985.00;4941228;29;20111;-96
2023/09/07 05:40:38;;;;;;;19.90;8.55;;;;;;;18.31;70.17;99984.00;4940061;29;20055;-95
2023/09/07 05:43:10;;;;;;;12.82;6.68;;;;;;;18.50;69.58;100002.16;4936032;29;20023;-96
2023/09/07 05:45:38;;;;;;;11.82;6.18;;;;;;;18.56;69.80;100009.91;4932894;29;20086;-95
2023/09/07 05:48:05;;;;;;;16.83;7.00;;;;;;;18.57;69.37;99999.81;4931651;29;20039;-95
2023/09/07 05:51:09;;;;;;;17.77;8.98;;;;;;;18.74;69.37;100007.38;4947614;29;20028;-96
2023/09/07 05:53:34;;;;;;;14.80;5.97;;;;;;;18.65;69.41;99980.00;4963598;29;20110;-96
2023/09/07 05:56:22;;;;;;;13.88;5.88;;;;;;;18.77;68.92;99987.63;4935995;29;20518;-96
2023/09/07 05:58:47;;;;;;;22.42;9.30;;;;;;;18.97;68.58;99997.31;4956706;29;20039;-96
2023/09/07 06:01:21;;;;;;;15.02;7.22;;;;;;;19.03;68.58;99995.25;4934446;29;20061;-96
2023/09/07 06:03:47;;;;;;;18.67;6.97;;;;;;;19.18;68.18;100011.28;4934448;29;20032;-96
2023/09/07 06:06:22;;;;;;;30.55;9.70;;;;;;;19.23;68.30;100000.22;4931394;29;20039;-96
2023/09/07 06:09:03;;;;;;;17.92;6.82;;;;;;;19.34;67.86;100008.97;4932273;29;20031;-96
2023/09/07 06:11:32;;;;;;;26.67;7.22;;;;;;;19.41;67.92;100003.88;4935728;29;20070;-96
2023/09/07 06:14:10;;;;;;;14.07;6.70;;;;;;;19.44;67.43;99988.78;4933810;29;20066;-96
2023/09/07 06:16:48;;;;;;;17.38;6.72;;;;;;;19.65;66.61;100009.00;4947138;29;20039;-96
2023/09/07 06:19:19;;;;;;;9.13;6.15;;;;;;;19.67;66.05;99992.28;4932074;29;20115;-96
2023/09/07 06:21:48;;;;;;;16.80;7.47;;;;;;;19.72;65.54;99989.47;4931229;29;20421;-96
2023/09/07 06:24:15;;;;;;;13.40;5.85;;;;;;;19.87;65.24;99988.22;4930341;29;20031;-96
2023/09/07 06:26:42;;;;;;;20.27;7.88;;;;;;;19.91;64.39;99981.81;4940048;29;20064;-96
2023/09/07 06:29:23;;;;;;;11.45;6.80;;;;;;;20.09;63.79;99984.63;4949732;29;20055;-96
2023/09/07 06:37:15;;;;;;;14.00;5.93;;;;;;;20.62;61.63;100007.44;5145032;23;20082;-96
2023/09/07 06:40:08;;;;;;;15.45;5.93;;;;;;;20.49;61.02;99990.81;4971685;28;20066;-96
2023/09/07 06:42:35;;;;;;;13.82;6.38;;;;;;;20.59;61.18;100006.16;4950662;28;20098;-96
2023/09/07 06:45:09;;;;;;;11.70;5.65;;;;;;;20.70;60.38;100012.13;4948338;28;20098;-96
2023/09/07 06:47:38;;;;;;;10.93;4.90;;;;;;;20.92;59.02;100016.66;4948725;28;20125;-96
2023/09/07 06:50:04;;;;;;;10.30;5.40;;;;;;;20.96;60.02;100004.72;4951278;28;20058;-96
2023/09/07 06:52:30;;;;;;;15.15;5.82;;;;;;;21.06;59.66;100010.97;4954475;28;20027;-94
2023/09/07 06:54:56;;;;;;;8.48;5.10;;;;;;;21.17;59.09;100004.88;4954005;28;20148;-95
2023/09/07 06:57:21;;;;;;;19.02;5.50;;;;;;;21.19;58.72;99999.88;4950267;28;20065;-96
2023/09/07 06:59:50;;;;;;;10.57;4.85;;;;;;;21.51;57.43;100010.63;4951436;28;20035;-93
2023/09/07 07:02:15;;;;;;;9.82;4.85;;;;;;;21.55;56.50;99993.22;4967422;28;20035;-95
2023/09/07 07:05:14;;;;;;;9.20;4.47;;;;;;;21.75;55.64;99990.91;4952684;28;20118;-96
2023/09/07 07:07:42;;;;;;;14.63;5.40;;;;;;;21.82;55.84;100001.34;4950260;28;20034;-96
2023/09/07 07:10:49;;;;;;;13.20;5.13;;;;;;;21.98;55.53;100013.38;4954717;28;20035;-96
2023/09/07 07:13:32;;;;;;;11.70;4.70;;;;;;;21.98;55.76;100005.97;4915429;28;20034;-96
2023/09/07 07:16:16;;;;;;;19.85;11.48;;;;;;;22.02;55.86;99997.06;4985801;28;20034;-96
2023/09/07 07:19:05;;;;;;;11.10;5.95;;;;;;;22.07;55.18;100007.84;4968736;28;20122;-96
2023/09/07 07:21:51;;;;;;;115.50;82.45;;;;;;;22.10;54.74;100015.41;4988697;28;20122;-96
2023/09/07 07:24:17;;;;;;;28.42;18.98;;;;;;;22.06;55.26;99995.25;4951738;28;20053;-96
2023/09/07 07:26:58;;;;;;;12.50;4.82;;;;;;;22.11;55.91;99992.34;4955283;28;20039;-95
2023/09/07 07:39:20;;;;;;;16.63;4.88;;;;;;;22.63;52.77;99981.06;4923597;29;20438;-96
2023/09/07 08:26:43;;;;;;;5.70;4.28;;;;;;;24.05;47.82;99969.97;4971117;28;20043;-96
2023/09/07 08:29:20;;;;;;;6.47;4.32;;;;;;;24.09;48.15;99962.59;4933937;29;20035;-96
2023/09/07 08:35:00;;;;;;;6.82;4.60;;;;;;;24.41;47.15;99966.34;5797423;23;20055;-95
2023/09/07 08:37:26;;;;;;;7.15;4.43;;;;;;;24.45;46.38;99963.72;4949680;28;20053;-94
2023/09/07 08:39:54;;;;;;;11.50;7.18;;;;;;;24.64;47.01;99967.81;4968758;28;20035;-95
2023/09/07 08:42:30;;;;;;;7.57;6.05;;;;;;;24.63;45.64;99964.25;4950346;28;20031;-96
2023/09/07 08:44:58;;;;;;;10.48;4.05;;;;;;;24.75;47.10;99961.47;4948906;28;20039;-94
2023/09/07 08:47:29;;;;;;;12.00;6.28;;;;;;;24.98;46.13;99972.72;4967498;28;20035;-96
2023/09/07 08:49:59;;;;;;;8.57;5.22;;;;;;;25.04;47.09;99965.03;4951514;28;20118;-96
2023/09/07 08:57:16;;;;;;;6.20;3.90;;;;;;;24.95;45.06;99950.59;5354446;23;20058;-96
2023/09/07 08:59:44;;;;;;;6.47;4.78;;;;;;;25.09;45.19;99956.50;4949986;29;20045;-96
2023/09/07 09:19:30;;;;;;;15.85;7.93;;;;;;;25.25;43.93;99950.25;5822155;23;20237;-96
2023/09/07 09:37:36;;;;;;;;;;;;;;;;;;;;;
2023/09/07 09:40:36;;;;;;;;;;;;;;;;;;;;;
2023/09/07 09:43:34;;;;;;;4.68;3.60;;;;;;;25.79;40.35;99941.38;5216316;23;20077;-96
2023/09/07 09:46:06;;;;;;;6.88;4.03;;;;;;;25.83;39.81;99928.47;5583581;23;20054;-96
2023/09/07 09:57:43;;;;;;;6.20;4.07;;;;;;;26.06;39.24;99909.31;4948394;28;20083;-96
2023/09/07 10:00:25;;;;;;;5.25;3.80;;;;;;;26.16;38.69;99908.75;4965524;29;20040;-96
2023/09/07 10:05:28;;;;;;;10.38;3.60;;;;;;;26.33;38.78;99906.75;5489283;23;20069;-96
2023/09/07 10:08:17;;;;;;;6.35;3.70;;;;;;;26.42;37.61;99916.44;4955724;29;20027;-96
2023/09/07 10:10:53;;;;;;;;;;;;;;;;;;;;;
2023/09/07 10:13:54;;;;;;;5.38;3.28;;;;;;;26.39;36.81;99892.28;4971273;28;20059;-96
2023/09/07 10:21:43;;;;;;;10.70;4.45;;;;;;;26.58;38.00;99872.22;5589467;23;20102;-96
2023/09/07 10:27:48;;;;;;;6.40;3.60;;;;;;;26.67;36.25;99866.44;4951983;29;20047;-96
2023/09/07 10:30:23;;;;;;;6.15;3.17;;;;;;;26.76;36.70;99869.78;4932296;29;20040;-96
2023/09/07 10:32:53;;;;;;;8.55;4.10;;;;;;;26.83;35.42;99866.34;4918789;29;20032;-96
2023/09/07 10:35:49;;;;;;;9.77;4.15;;;;;;;26.83;34.71;99862.78;4940177;29;20051;-96
2023/09/07 10:38:15;;;;;;;6.28;3.58;;;;;;;26.89;34.05;99853.03;4928705;29;20036;-96
2023/09/07 10:40:41;;;;;;;7.93;3.35;;;;;;;27.01;34.30;99861.16;4911154;29;20539;-96
2023/09/07 10:43:11;;;;;;;7.30;3.15;;;;;;;27.10;33.74;99855.38;4917469;29;20024;-96
2023/09/07 10:46:09;;;;;;;12.80;9.25;;;;;;;27.18;33.75;99863.41;4893182;29;20040;-96
2023/09/07 10:54:57;;;;;;;;;;;;;;;;;;;;;
2023/09/07 10:58:42;;;;;;;;;;;;;;;;;;;;;
2023/09/07 11:05:39;;;;;;;5.80;3.05;;;;;;;27.34;32.00;99835.66;4944047;29;20055;-96
2023/09/07 11:08:44;;;;;;;;;;;;;;;;;;;;;
2023/09/07 11:25:14;;;;;;;5.38;3.40;;;;;;;28.03;32.44;99801.50;5124141;23;20052;-96
2023/09/07 11:58:18;;;;;;;;;;;;;;;;;;;;;
2023/09/07 12:01:16;;;;;;;5.95;3.15;;;;;;;28.99;30.06;99800.94;4971209;28;20544;-96
2023/09/07 12:04:10;;;;;;;;;;;;;;;;;;;;;
2023/09/07 12:06:40;;;;;;;5.75;3.38;;;;;;;29.23;30.89;99796.84;4986201;28;20444;-96
2023/09/07 12:09:19;;;;;;;6.78;3.25;;;;;;;29.23;29.90;99782.19;4953507;28;20035;-96
2023/09/07 12:11:57;;;;;;;4.85;3.30;;;;;;;29.25;30.15;99788.13;5046619;23;20060;-96
2023/09/07 12:16:59;;;;;;;6.32;3.15;;;;;;;29.34;29.47;99794.91;5205139;23;20469;-95
2023/09/07 12:22:26;;;;;;;6.32;3.38;;;;;;;29.17;29.59;99787.28;4964964;28;20035;-96
2023/09/07 12:24:51;;;;;;;9.02;4.43;;;;;;;29.12;30.56;99780.13;4944471;29;20042;-95
2023/09/07 12:27:27;;;;;;;5.38;3.40;;;;;;;29.22;30.28;99792.47;4950595;29;20489;-96
2023/09/07 12:30:14;;;;;;;7.85;3.25;;;;;;;29.07;30.33;99769.34;4947880;29;20027;-94
2023/09/07 12:32:40;;;;;;;5.40;3.25;;;;;;;29.17;30.25;99768.66;4973361;28;20094;-93
2023/09/07 12:35:08;;;;;;;6.63;3.60;;;;;;;29.31;30.80;99772.72;4961012;29;20103;-95
2023/09/07 12:37:58;;;;;;;7.63;3.63;;;;;;;29.38;30.09;99767.22;4944921;29;20604;-94
2023/09/07 12:40:36;;;;;;;;;;;;;;;;;;;;;
2023/09/07 12:43:33;;;;;;;6.80;3.47;;;;;;;29.45;28.32;99764.50;4970202;28;20131;-96
2023/09/07 12:46:02;;;;;;;4.20;2.83;;;;;;;29.35;28.80;99759.69;4984411;28;20470;-96
2023/09/07 12:48:29;;;;;;;3.63;2.63;;;;;;;29.34;29.21;99752.53;4951997;29;20039;-96
2023/09/07 12:51:01;;;;;;;6.43;3.55;;;;;;;29.57;30.16;99755.03;4951077;29;20082;-96
2023/09/07 12:53:27;;;;;;;6.80;3.30;;;;;;;29.56;30.17;99740.38;4949153;29;20130;-96
2023/09/07 12:55:56;;;;;;;5.65;3.50;;;;;;;29.58;30.54;99754.66;4945427;29;20035;-96
2023/09/07 12:58:24;;;;;;;6.07;3.45;;;;;;;29.59;30.69;99755.44;4960852;29;20410;-96
2023/09/07 13:00:51;;;;;;;9.27;3.63;;;;;;;29.53;30.46;99757.81;4944240;29;20046;-96
2023/09/07 13:05:52;;;;;;;5.93;3.50;;;;;;;29.31;29.59;99745.78;5469482;23;20052;-96
2023/09/07 13:08:18;;;;;;;8.77;3.85;;;;;;;29.28;29.99;99756.84;4916618;29;20040;-96
2023/09/07 13:10:50;;;;;;;4.95;3.13;;;;;;;29.24;29.72;99753.25;4896988;29;20621;-96
2023/09/07 13:13:18;;;;;;;6.00;3.30;;;;;;;29.28;29.71;99754.06;4897085;29;20040;-96
2023/09/07 13:15:44;;;;;;;7.20;3.55;;;;;;;29.28;28.79;99752.09;4899796;29;20052;-96
2023/09/07 13:18:13;;;;;;;6.47;3.30;;;;;;;29.38;29.14;99754.13;4895084;29;20488;-96
2023/09/07 13:21:32;;;;;;;6.03;2.92;;;;;;;29.52;28.73;99744.31;4873927;29;20115;-96
2023/09/07 13:24:44;;;;;;;7.10;3.10;;;;;;;29.80;28.95;99736.16;4871076;29;20042;-96
2023/09/07 13:30:45;;;;;;;7.75;3.35;;;;;;;29.92;28.76;99743.34;4893270;29;20037;-96
2023/09/07 13:33:29;;;;;;;6.57;3.25;;;;;;;29.94;28.84;99754.84;4844695;29;20128;-96
2023/09/07 13:36:09;;;;;;;5.03;3.20;;;;;;;29.65;28.69;99739.22;4874751;29;20040;-95
2023/09/07 13:38:35;;;;;;;4.90;3.17;;;;;;;29.53;29.19;99734.78;4892987;29;20099;-96
2023/09/07 13:41:06;;;;;;;6.28;4.30;;;;;;;29.49;29.28;99743.13;4892054;29;20035;-96
2023/09/07 13:43:33;;;;;;;5.15;2.97;;;;;;;29.20;28.71;99742.94;4893995;29;20040;-95
2023/09/07 13:46:04;;;;;;;3.90;2.83;;;;;;;28.91;29.79;99749.41;4891466;29;20107;-95
2023/09/07 13:48:32;;;;;;;4.70;2.85;;;;;;;28.93;29.59;99747.84;4875938;29;20043;-96
2023/09/07 13:51:01;;;;;;;7.03;3.42;;;;;;;28.80;29.73;99738.22;4908256;29;20128;-96
2023/09/07 13:53:31;;;;;;;8.98;4.88;;;;;;;29.01;30.05;99735.66;4898439;29;20561;-96
2023/09/07 13:56:00;;;;;;;3.80;2.90;;;;;;;28.93;29.44;99741.50;4930210;29;20032;-96
2023/09/07 13:58:28;;;;;;;5.00;2.78;;;;;;;28.78;30.08;99730.31;4928812;29;20042;-96
2023/09/07 14:00:57;;;;;;;6.22;2.67;;;;;;;28.71;30.03;99733.00;4937345;29;20135;-96
2023/09/07 14:03:25;;;;;;;5.75;3.53;;;;;;;28.84;30.06;99727.19;4951037;29;20079;-96
2023/09/07 14:06:17;;;;;;;5.97;3.63;;;;;;;29.12;30.21;99729.41;4947540;29;20056;-96
2023/09/07 14:12:50;;;;;;;;;;;;;;;;;;;;;
2023/09/07 14:15:32;;;;;;;6.28;3.60;;;;;;;29.33;29.83;99720.44;4965442;29;20058;-96
2023/09/07 14:24:33;;;;;;;4.82;2.88;;;;;;;28.94;29.48;99734.78;4998422;23;20102;-96
2023/09/07 14:34:41;;;;;;;;;;;;;;;;;;;;;
2023/09/07 14:37:52;;;;;;;;;;;;;;;;;;;;;
2023/09/07 14:40:24;;;;;;;5.45;2.63;;;;;;;29.11;29.09;99716.72;4907761;29;20119;-96
2023/09/07 14:42:53;;;;;;;5.97;2.97;;;;;;;28.97;28.97;99706.28;4897212;29;20036;-96
2023/09/07 14:45:40;;;;;;;8.02;2.90;;;;;;;28.91;29.58;99705.03;4927348;29;20110;-96
2023/09/07 14:48:29;;;;;;;6.45;2.70;;;;;;;28.97;29.34;99715.41;4911035;29;20055;-96
2023/09/07 14:51:19;;;;;;;8.48;3.08;;;;;;;28.85;29.38;99712.16;4887067;29;20041;-96
2023/09/07 14:53:44;;;;;;;6.65;2.92;;;;;;;28.76;29.72;99695.81;4871178;29;20044;-95
2023/09/07 14:56:28;;;;;;;;;;;;;;;;;;;;;
2023/09/07 14:58:55;;;;;;;4.63;2.67;;;;;;;28.57;30.00;99694.88;4879490;29;20225;-96
2023/09/07 15:01:24;;;;;;;5.88;2.88;;;;;;;28.65;29.87;99709.59;4888861;29;20060;-96
2023/09/07 15:04:00;;;;;;;4.53;2.47;;;;;;;28.52;29.67;99698.00;4875164;29;20041;-96
2023/09/07 15:06:27;;;;;;;7.50;3.00;;;;;;;28.47;30.05;99698.31;4868181;29;20049;-95
2023/09/07 15:08:57;;;;;;;6.80;2.72;;;;;;;28.41;30.31;99702.63;4865195;29;20041;-96
2023/09/07 15:11:25;;;;;;;5.05;2.45;;;;;;;28.36;30.41;99708.50;4864201;29;20081;-96
2023/09/07 15:13:55;;;;;;;9.38;2.90;;;;;;;28.34;30.37;99697.81;4866704;29;20041;-96
2023/09/07 15:16:32;;;;;;;9.45;2.90;;;;;;;28.30;30.00;99698.94;4868178;29;20072;-96
2023/09/07 15:19:02;;;;;;;7.38;3.10;;;;;;;28.24;30.66;99700.47;4874562;29;20037;-96
2023/09/07 15:21:31;;;;;;;5.03;3.17;;;;;;;28.24;30.45;99711.56;4873056;29;20070;-96
2023/09/07 15:24:08;;;;;;;4.35;2.88;;;;;;;28.13;30.47;99695.63;4906712;29;20499;-96
2023/09/07 15:26:47;;;;;;;7.47;3.22;;;;;;;27.90;30.07;99692.22;4906237;29;20101;-96
2023/09/07 15:29:13;;;;;;;4.00;2.70;;;;;;;27.83;30.01;99698.44;4905496;29;20036;-96
2023/09/07 15:31:38;;;;;;;5.80;3.17;;;;;;;27.77;30.64;99702.72;4907330;29;20114;-96
2023/09/07 15:34:04;;;;;;;3.50;2.60;;;;;;;27.67;30.69;99697.84;4910743;29;20422;-95
2023/09/07 15:36:30;;;;;;;4.03;2.65;;;;;;;27.60;30.16;99695.75;4924422;29;20096;-96
2023/09/07 15:38:56;;;;;;;6.10;3.20;;;;;;;27.52;30.73;99708.72;4936776;29;20036;-95
2023/09/07 15:41:53;;;;;;;;;;;;;;;;;;;;;
2023/09/07 15:44:08;;;;;;;3.90;2.55;;;;;;;27.38;31.13;99691.94;4939379;29;20090;-96
2023/09/07 15:46:34;;;;;;;4.10;2.70;;;;;;;27.35;30.91;99698.19;4927558;29;20031;-96
2023/09/07 15:48:59;;;;;;;4.82;2.65;;;;;;;27.33;31.14;99695.81;4924316;29;20031;-96
2023/09/07 15:51:28;;;;;;;8.45;3.10;;;;;;;27.27;31.20;99699.25;4930681;29;20036;-96
2023/09/07 15:57:31;;;;;;;4.60;2.90;;;;;;;27.20;31.13;99694.41;5449233;23;20052;-96
2023/09/07 15:59:58;;;;;;;5.50;2.90;;;;;;;27.33;31.15;99715.19;4928882;29;20595;-96
2023/09/07 16:02:27;;;;;;;4.75;3.00;;;;;;;27.20;31.72;99691.63;4932451;29;20055;-96
2023/09/07 16:04:53;;;;;;;7.28;2.85;;;;;;;27.14;31.75;99687.59;4931134;29;20043;-96
2023/09/07 16:07:40;;;;;;;5.65;2.90;;;;;;;27.14;31.55;99690.34;4926678;29;20040;-96
2023/09/07 16:10:09;;;;;;;5.05;2.70;;;;;;;27.18;31.66;99697.53;4944618;29;20099;-94
2023/09/07 16:12:35;;;;;;;5.22;3.13;;;;;;;27.06;31.74;99695.00;4925901;29;20037;-94
2023/09/07 16:15:01;;;;;;;3.90;2.55;;;;;;;27.09;31.78;99701.75;4940169;29;20034;-94